Time,TemperatureF,DewpointF,PressureIn,WindDirection,WindDirectionDegrees,WindSpeedMPH,WindSpeedGustMPH,Humidity,HourlyPrecipIn,Conditions,Clouds,dailyrainin,SoftwareType,DateUTC
2013-07-17 00:05:00,81.2,76.6,30.17,ESE,104,9.0,11.0,86,0.00,,,0.00,Wunderground v.1.15,2013-07-17 04:05:00,
2013-07-17 00:10:00,81.1,76.5,30.17,ESE,103,9.0,9.0,86,0.00,,,0.00,Wunderground v.1.15,2013-07-17 04:10:00,
2013-07-17 00:15:00,81.1,76.5,30.17,East,94,8.0,9.0,86,0.00,,,0.00,Wunderground v.1.15,2013-07-17 04:15:00,
2013-07-17 00:20:00,81.1,76.5,30.17,East,90,8.0,9.0,86,0.00,,,0.00,Wunderground v.1.15,2013-07-17 04:20:00,
2013-07-17 00:25:00,81.2,76.6,30.17,East,90,7.0,9.0,86,0.00,,,0.00,Wunderground v.1.15,2013-07-17 04:25:00,
2013-07-17 00:30:00,81.1,76.9,30.17,East,96,4.0,4.0,87,0.00,,,0.00,Wunderground v.1.15,2013-07-17 04:30:00,
2013-07-17 00:40:00,81.0,76.8,30.17,East,85,3.0,5.0,87,0.00,,,0.00,Wunderground v.1.15,2013-07-17 04:40:00,
2013-07-17 00:45:00,81.3,77.1,30.17,ENE,65,7.0,7.0,87,0.00,,,0.00,Wunderground v.1.15,2013-07-17 04:45:00,
2013-07-17 00:50:00,81.3,77.4,30.17,ENE,71,9.0,11.0,88,0.00,,,0.00,Wunderground v.1.15,2013-07-17 04:50:00,
2013-07-17 00:55:00,81.2,77.3,30.17,ENE,68,10.0,11.0,88,0.00,,,0.00,Wunderground v.1.15,2013-07-17 04:55:00,
2013-07-17 01:00:00,81.2,77.6,30.17,ENE,75,11.0,11.0,89,0.00,,,0.00,Wunderground v.1.15,2013-07-17 05:00:00,
2013-07-17 01:05:00,81.2,77.6,30.17,ENE,71,10.0,12.0,89,0.00,,,0.00,Wunderground v.1.15,2013-07-17 05:05:00,
2013-07-17 01:10:00,81.1,77.5,30.17,ENE,67,10.0,14.0,89,0.00,,,0.00,Wunderground v.1.15,2013-07-17 05:10:00,
2013-07-17 01:20:00,80.9,77.7,30.17,ENE,67,14.0,15.0,90,0.00,,,0.00,Wunderground v.1.15,2013-07-17 05:20:00,
2013-07-17 01:25:00,80.8,77.6,30.17,ENE,77,14.0,15.0,90,0.00,,,0.00,Wunderground v.1.15,2013-07-17 05:25:00,
2013-07-17 01:35:00,80.5,77.6,30.17,ENE,57,13.0,14.0,91,0.00,,,0.00,Wunderground v.1.15,2013-07-17 05:35:00,
2013-07-17 01:40:00,80.4,77.2,30.17,ENE,62,13.0,13.0,90,0.00,,,0.00,Wunderground v.1.15,2013-07-17 05:40:00,
2013-07-17 01:50:00,80.4,76.9,30.17,ENE,72,13.0,13.0,89,0.00,,,0.00,Wunderground v.1.15,2013-07-17 05:50:00,
2013-07-17 01:55:00,80.5,77.0,30.17,ENE,71,14.0,18.0,89,0.00,,,0.00,Wunderground v.1.15,2013-07-17 05:55:00,
2013-07-17 02:05:00,80.4,76.9,30.17,ENE,61,14.0,17.0,89,0.00,,,0.00,Wunderground v.1.15,2013-07-17 06:05:00,
2013-07-17 02:10:00,80.3,76.8,30.17,ENE,74,13.0,15.0,89,0.00,,,0.00,Wunderground v.1.15,2013-07-17 06:10:00,
2013-07-17 02:15:00,80.3,76.8,30.17,ENE,70,14.0,15.0,89,0.00,,,0.00,Wunderground v.1.15,2013-07-17 06:15:00,
2013-07-17 02:20:00,80.3,76.4,30.17,ENE,65,13.0,14.0,88,0.00,,,0.00,Wunderground v.1.15,2013-07-17 06:20:00,
2013-07-17 02:30:00,80.3,76.8,30.17,East,82,13.0,14.0,89,0.00,,,0.00,Wunderground v.1.15,2013-07-17 06:30:00,
2013-07-17 02:35:00,80.0,76.5,30.17,East,80,13.0,14.0,89,0.00,,,0.00,Wunderground v.1.15,2013-07-17 06:35:00,
2013-07-17 02:40:00,80.0,76.5,30.17,ENE,59,12.0,12.0,89,0.00,,,0.00,Wunderground v.1.15,2013-07-17 06:40:00,
2013-07-17 02:50:00,79.8,76.6,30.17,ENE,75,12.0,12.0,90,0.00,,,0.00,Wunderground v.1.15,2013-07-17 06:50:00,
2013-07-17 02:55:00,79.7,76.5,30.17,ENE,71,13.0,13.0,90,0.00,,,0.00,Wunderground v.1.15,2013-07-17 06:55:00,
2013-07-17 03:05:00,79.7,76.5,30.17,ENE,72,13.0,13.0,90,0.00,,,0.00,Wunderground v.1.15,2013-07-17 07:05:00,
2013-07-17 03:10:00,79.6,76.1,30.17,ENE,72,13.0,13.0,89,0.00,,,0.00,Wunderground v.1.15,2013-07-17 07:10:00,
2013-07-17 03:20:00,79.6,76.4,30.16,NE,55,12.0,12.0,90,0.00,,,0.00,Wunderground v.1.15,2013-07-17 07:20:00,
2013-07-17 03:30:00,79.6,76.4,30.17,ENE,65,12.0,12.0,90,0.00,,,0.00,Wunderground v.1.15,2013-07-17 07:30:00,
2013-07-17 03:35:00,79.6,76.4,30.17,ENE,57,11.0,12.0,90,0.00,,,0.00,Wunderground v.1.15,2013-07-17 07:35:00,
2013-07-17 03:45:00,79.6,76.4,30.16,NE,55,11.0,13.0,90,0.00,,,0.00,Wunderground v.1.15,2013-07-17 07:45:00,
2013-07-17 03:50:00,79.6,76.4,30.16,ENE,63,12.0,14.0,90,0.00,,,0.00,Wunderground v.1.15,2013-07-17 07:50:00,
2013-07-17 04:00:00,79.6,76.7,30.16,NE,56,13.0,13.0,91,0.00,,,0.00,Wunderground v.1.15,2013-07-17 08:00:00,
2013-07-17 04:05:00,79.6,76.7,30.16,NE,49,13.0,13.0,91,0.00,,,0.00,Wunderground v.1.15,2013-07-17 08:05:00,
2013-07-17 04:10:00,79.6,76.7,30.16,ENE,60,13.0,13.0,91,0.00,,,0.00,Wunderground v.1.15,2013-07-17 08:10:00,
2013-07-17 04:20:00,79.6,76.7,30.16,ENE,59,12.0,12.0,91,0.00,,,0.00,Wunderground v.1.15,2013-07-17 08:20:00,
2013-07-17 04:25:00,79.4,76.5,30.16,ENE,67,12.0,12.0,91,0.00,,,0.00,Wunderground v.1.15,2013-07-17 08:25:00,
2013-07-17 04:35:00,79.4,76.5,30.16,ENE,61,12.0,13.0,91,0.00,,,0.00,Wunderground v.1.15,2013-07-17 08:35:00,
2013-07-17 04:45:00,79.4,76.2,30.16,ENE,57,13.0,15.0,90,0.00,,,0.00,Wunderground v.1.15,2013-07-17 08:45:00,
2013-07-17 04:55:00,79.5,76.3,30.16,ENE,64,13.0,14.0,90,0.00,,,0.00,Wunderground v.1.15,2013-07-17 08:55:00,
2013-07-17 05:00:00,79.4,76.2,30.16,ENE,65,12.0,13.0,90,0.00,,,0.00,Wunderground v.1.15,2013-07-17 09:00:00,
2013-07-17 05:05:00,79.5,76.3,30.16,ENE,61,13.0,15.0,90,0.00,,,0.00,Wunderground v.1.15,2013-07-17 09:05:00,
2013-07-17 05:15:00,79.8,76.6,30.16,NE,56,14.0,16.0,90,0.00,,,0.00,Wunderground v.1.15,2013-07-17 09:15:00,
2013-07-17 05:20:00,79.7,76.2,30.16,ENE,57,14.0,14.0,89,0.00,,,0.00,Wunderground v.1.15,2013-07-17 09:20:00,
2013-07-17 05:25:00,79.8,76.3,30.16,ENE,59,14.0,14.0,89,0.00,,,0.00,Wunderground v.1.15,2013-07-17 09:25:00,
2013-07-17 05:35:00,79.5,76.3,30.17,NE,49,15.0,15.0,90,0.00,,,0.00,Wunderground v.1.15,2013-07-17 09:35:00,
2013-07-17 05:40:00,79.2,75.7,30.17,ENE,59,16.0,18.0,89,0.00,,,0.00,Wunderground v.1.15,2013-07-17 09:40:00,
2013-07-17 05:50:00,79.0,75.8,30.16,ENE,65,17.0,18.0,90,0.00,,,0.00,Wunderground v.1.15,2013-07-17 09:50:00,
2013-07-17 06:00:00,78.8,75.9,30.16,NE,55,17.0,19.0,91,0.00,,,0.00,Wunderground v.1.15,2013-07-17 10:00:00,
2013-07-17 06:05:00,78.7,75.8,30.16,ENE,57,17.0,19.0,91,0.00,,,0.00,Wunderground v.1.15,2013-07-17 10:05:00,
2013-07-17 06:10:00,78.7,75.8,30.16,ENE,59,15.0,15.0,91,0.00,,,0.00,Wunderground v.1.15,2013-07-17 10:10:00,
2013-07-17 06:15:00,78.7,75.8,30.16,ENE,67,15.0,19.0,91,0.00,,,0.00,Wunderground v.1.15,2013-07-17 10:15:00,
2013-07-17 06:25:00,78.9,76.0,30.16,ENE,76,15.0,17.0,91,0.00,,,0.00,Wunderground v.1.15,2013-07-17 10:25:00,
2013-07-17 06:30:00,78.9,76.0,30.16,ENE,64,15.0,15.0,91,0.00,,,0.00,Wunderground v.1.15,2013-07-17 10:30:00,
2013-07-17 06:35:00,78.9,76.0,30.17,ENE,75,16.0,16.0,91,0.00,,,0.00,Wunderground v.1.15,2013-07-17 10:35:00,
2013-07-17 06:40:00,78.8,75.9,30.17,ENE,68,17.0,18.0,91,0.00,,,0.00,Wunderground v.1.15,2013-07-17 10:40:00,
2013-07-17 06:50:00,78.7,76.2,30.17,ENE,75,17.0,17.0,92,0.00,,,0.00,Wunderground v.1.15,2013-07-17 10:50:00,
2013-07-17 06:55:00,78.5,75.7,30.17,ENE,75,17.0,17.0,91,0.00,,,0.00,Wunderground v.1.15,2013-07-17 10:55:00,
2013-07-17 07:05:00,78.4,75.9,30.17,ENE,69,16.0,17.0,92,0.00,,,0.00,Wunderground v.1.15,2013-07-17 11:05:00,
2013-07-17 07:10:00,78.6,76.1,30.17,ENE,68,16.0,16.0,92,0.00,,,0.00,Wunderground v.1.15,2013-07-17 11:10:00,
2013-07-17 07:20:00,78.7,76.2,30.17,NE,55,15.0,16.0,92,0.00,,,0.00,Wunderground v.1.15,2013-07-17 11:20:00,
2013-07-17 07:25:00,78.7,76.2,30.17,ENE,75,16.0,18.0,92,0.00,,,0.00,Wunderground v.1.15,2013-07-17 11:25:00,
2013-07-17 07:30:00,78.8,76.3,30.17,East,84,15.0,15.0,92,0.00,,,0.00,Wunderground v.1.15,2013-07-17 11:30:00,
2013-07-17 07:40:00,78.8,76.3,30.17,ENE,75,16.0,18.0,92,0.00,,,0.00,Wunderground v.1.15,2013-07-17 11:40:00,
2013-07-17 07:45:00,78.9,76.0,30.17,East,80,17.0,18.0,91,0.00,,,0.00,Wunderground v.1.15,2013-07-17 11:45:00,
2013-07-17 07:50:00,78.9,76.0,30.17,ENE,70,17.0,18.0,91,0.00,,,0.00,Wunderground v.1.15,2013-07-17 11:50:00,
2013-07-17 08:00:00,78.9,76.4,30.18,ENE,78,18.0,18.0,92,0.00,,,0.00,Wunderground v.1.15,2013-07-17 12:00:00,
2013-07-17 08:05:00,79.0,76.5,30.18,ENE,69,17.0,18.0,92,0.00,,,0.00,Wunderground v.1.15,2013-07-17 12:05:00,
2013-07-17 08:10:00,78.8,75.9,30.18,ENE,74,18.0,18.0,91,0.00,,,0.00,Wunderground v.1.15,2013-07-17 12:10:00,
2013-07-17 08:20:00,79.0,76.5,30.18,ENE,74,17.0,17.0,92,0.00,,,0.00,Wunderground v.1.15,2013-07-17 12:20:00,
2013-07-17 08:25:00,79.2,76.7,30.18,ENE,73,17.0,17.0,92,0.00,,,0.00,Wunderground v.1.15,2013-07-17 12:25:00,
2013-07-17 08:35:00,79.2,76.3,30.19,East,80,16.0,17.0,91,0.00,,,0.00,Wunderground v.1.15,2013-07-17 12:35:00,
2013-07-17 08:40:00,79.3,76.8,30.19,ENE,75,16.0,18.0,92,0.00,,,0.00,Wunderground v.1.15,2013-07-17 12:40:00,
2013-07-17 08:50:00,79.2,76.3,30.19,ENE,68,17.0,17.0,91,0.00,,,0.00,Wunderground v.1.15,2013-07-17 12:50:00,
2013-07-17 08:55:00,79.2,76.3,30.19,East,81,17.0,17.0,91,0.00,,,0.00,Wunderground v.1.15,2013-07-17 12:55:00,
2013-07-17 09:05:00,79.3,76.4,30.19,ENE,75,16.0,17.0,91,0.00,,,0.00,Wunderground v.1.15,2013-07-17 13:05:00,
2013-07-17 09:10:00,79.3,76.4,30.19,ENE,65,16.0,17.0,91,0.00,,,0.00,Wunderground v.1.15,2013-07-17 13:10:00,
2013-07-17 09:15:00,79.4,76.9,30.20,East,79,17.0,20.0,92,0.00,,,0.00,Wunderground v.1.15,2013-07-17 13:15:00,
2013-07-17 09:20:00,79.3,76.4,30.20,ENE,71,17.0,19.0,91,0.00,,,0.00,Wunderground v.1.15,2013-07-17 13:20:00,
2013-07-17 09:30:00,79.3,76.4,30.20,East,79,18.0,18.0,91,0.00,,,0.00,Wunderground v.1.15,2013-07-17 13:30:00,
2013-07-17 09:40:00,79.3,76.4,30.20,ENE,76,17.0,19.0,91,0.00,,,0.00,Wunderground v.1.15,2013-07-17 13:40:00,
2013-07-17 09:45:00,79.3,76.8,30.19,ENE,74,18.0,19.0,92,0.00,,,0.00,Wunderground v.1.15,2013-07-17 13:45:00,
2013-07-17 09:50:00,79.4,76.9,30.20,ENE,63,17.0,17.0,92,0.00,,,0.00,Wunderground v.1.15,2013-07-17 13:50:00,
2013-07-17 10:00:00,79.4,76.5,30.20,East,81,16.0,16.0,91,0.00,,,0.00,Wunderground v.1.15,2013-07-17 14:00:00,
2013-07-17 10:05:00,79.3,76.8,30.20,ENE,65,15.0,17.0,92,0.00,,,0.00,Wunderground v.1.15,2013-07-17 14:05:00,
2013-07-17 10:10:00,79.5,77.0,30.19,ENE,61,15.0,15.0,92,0.00,,,0.00,Wunderground v.1.15,2013-07-17 14:10:00,
2013-07-17 10:20:00,79.5,76.6,30.19,East,87,13.0,14.0,91,0.00,,,0.00,Wunderground v.1.15,2013-07-17 14:20:00,
2013-07-17 10:25:00,79.7,77.2,30.20,ENE,68,14.0,17.0,92,0.00,,,0.00,Wunderground v.1.15,2013-07-17 14:25:00,
2013-07-17 10:35:00,80.0,77.1,30.20,ENE,69,14.0,15.0,91,0.00,,,0.00,Wunderground v.1.15,2013-07-17 14:35:00,
2013-07-17 10:45:00,80.1,77.2,30.20,ENE,64,15.0,17.0,91,0.00,,,0.00,Wunderground v.1.15,2013-07-17 14:45:00,
2013-07-17 10:50:00,80.2,77.0,30.20,ENE,61,15.0,17.0,90,0.00,,,0.00,Wunderground v.1.15,2013-07-17 14:50:00,
2013-07-17 10:55:00,80.3,77.1,30.20,ENE,65,15.0,17.0,90,0.00,,,0.00,Wunderground v.1.15,2013-07-17 14:55:00,
2013-07-17 11:05:00,80.6,77.4,30.20,ENE,67,14.0,17.0,90,0.00,,,0.00,Wunderground v.1.15,2013-07-17 15:05:00,
2013-07-17 11:10:00,80.6,77.4,30.20,ENE,68,15.0,15.0,90,0.00,,,0.00,Wunderground v.1.15,2013-07-17 15:10:00,
2013-07-17 11:20:00,80.8,77.6,30.20,ENE,58,15.0,15.0,90,0.00,,,0.00,Wunderground v.1.15,2013-07-17 15:20:00,
2013-07-17 11:25:00,80.9,77.4,30.20,ENE,66,15.0,15.0,89,0.00,,,0.00,Wunderground v.1.15,2013-07-17 15:25:00,
2013-07-17 11:35:00,81.2,77.3,30.20,ENE,67,15.0,15.0,88,0.00,,,0.00,Wunderground v.1.15,2013-07-17 15:35:00,
2013-07-17 11:40:00,81.3,77.1,30.20,ENE,76,14.0,14.0,87,0.00,,,0.00,Wunderground v.1.15,2013-07-17 15:40:00,
2013-07-17 11:45:00,81.2,77.0,30.20,ENE,67,14.0,17.0,87,0.00,,,0.00,Wunderground v.1.15,2013-07-17 15:45:00,
2013-07-17 11:55:00,81.6,77.0,30.21,East,82,15.0,15.0,86,0.00,,,0.00,Wunderground v.1.15,2013-07-17 15:55:00,
2013-07-17 12:05:00,81.7,77.1,30.20,East,80,14.0,15.0,86,0.00,,,0.00,Wunderground v.1.15,2013-07-17 16:05:00,
2013-07-17 12:10:00,81.8,76.8,30.21,NE,44,12.0,12.0,85,0.00,,,0.00,Wunderground v.1.15,2013-07-17 16:10:00,
2013-07-17 12:20:00,82.2,77.6,30.21,ENE,57,12.0,12.0,86,0.00,,,0.00,Wunderground v.1.15,2013-07-17 16:20:00,
2013-07-17 12:25:00,82.4,77.4,30.20,ENE,60,12.0,12.0,85,0.00,,,0.00,Wunderground v.1.15,2013-07-17 16:25:00,
2013-07-17 12:30:00,82.7,77.0,30.21,ENE,74,12.0,12.0,83,0.00,,,0.00,Wunderground v.1.15,2013-07-17 16:30:00,
2013-07-17 12:40:00,83.3,76.5,30.20,ENE,57,13.0,13.0,80,0.00,,,0.00,Wunderground v.1.15,2013-07-17 16:40:00,
2013-07-17 12:45:00,83.5,75.5,30.21,East,94,13.0,13.0,77,0.00,,,0.00,Wunderground v.1.15,2013-07-17 16:45:00,
2013-07-17 12:50:00,83.9,75.5,30.20,ENE,68,12.0,12.0,76,0.00,,,0.00,Wunderground v.1.15,2013-07-17 16:50:00,
2013-07-17 12:55:00,83.8,75.0,30.20,ENE,70,12.0,12.0,75,0.00,,,0.00,Wunderground v.1.15,2013-07-17 16:55:00,
2013-07-17 13:05:00,83.9,75.5,30.20,East,84,13.0,16.0,76,0.00,,,0.00,Wunderground v.1.15,2013-07-17 17:05:00,
2013-07-17 13:10:00,84.3,76.3,30.20,ESE,105,12.0,12.0,77,0.00,,,0.00,Wunderground v.1.15,2013-07-17 17:10:00,
2013-07-17 13:20:00,84.8,76.4,30.20,SE,136,11.0,14.0,76,0.00,,,0.00,Wunderground v.1.15,2013-07-17 17:20:00,
2013-07-17 13:25:00,84.8,76.4,30.20,East,94,11.0,14.0,76,0.00,,,0.00,Wunderground v.1.15,2013-07-17 17:25:00,
2013-07-17 13:35:00,84.6,76.6,30.19,SE,124,14.0,19.0,77,0.00,,,0.00,Wunderground v.1.15,2013-07-17 17:35:00,
2013-07-17 13:40:00,84.1,76.1,30.19,SE,127,17.0,17.0,77,0.00,,,0.00,Wunderground v.1.15,2013-07-17 17:40:00,
2013-07-17 13:45:00,83.7,76.5,30.19,SE,134,19.0,19.0,79,0.00,,,0.00,Wunderground v.1.15,2013-07-17 17:45:00,
2013-07-17 13:55:00,84.3,75.9,30.19,SSE,147,18.0,21.0,76,0.00,,,0.00,Wunderground v.1.15,2013-07-17 17:55:00,
2013-07-17 14:00:00,83.8,75.8,30.19,SE,132,17.0,21.0,77,0.00,,,0.00,Wunderground v.1.15,2013-07-17 18:00:00,
2013-07-17 14:10:00,83.7,76.1,30.19,SE,140,17.0,17.0,78,0.00,,,0.00,Wunderground v.1.15,2013-07-17 18:10:00,
2013-07-17 14:20:00,83.6,76.0,30.19,SE,131,16.0,16.0,78,0.00,,,0.00,Wunderground v.1.15,2013-07-17 18:20:00,
2013-07-17 14:25:00,83.6,76.0,30.19,SE,129,17.0,18.0,78,0.00,,,0.00,Wunderground v.1.15,2013-07-17 18:25:00,
2013-07-17 14:35:00,83.7,76.1,30.19,ESE,115,17.0,18.0,78,0.00,,,0.00,Wunderground v.1.15,2013-07-17 18:35:00,
2013-07-17 14:40:00,83.6,76.8,30.19,SE,145,16.0,16.0,80,0.00,,,0.00,Wunderground v.1.15,2013-07-17 18:40:00,
2013-07-17 14:50:00,83.6,76.8,30.19,SE,130,15.0,15.0,80,0.00,,,0.00,Wunderground v.1.15,2013-07-17 18:50:00,
2013-07-17 14:55:00,83.6,76.8,30.18,SE,125,16.0,16.0,80,0.00,,,0.00,Wunderground v.1.15,2013-07-17 18:55:00,
2013-07-17 15:05:00,83.4,76.6,30.18,ESE,103,16.0,16.0,80,0.00,,,0.00,Wunderground v.1.15,2013-07-17 19:05:00,
2013-07-17 15:10:00,83.6,76.8,30.18,ESE,115,16.0,16.0,80,0.00,,,0.00,Wunderground v.1.15,2013-07-17 19:10:00,
2013-07-17 15:20:00,83.5,76.7,30.18,SE,127,16.0,16.0,80,0.00,,,0.00,Wunderground v.1.15,2013-07-17 19:20:00,
2013-07-17 15:25:00,83.6,76.8,30.17,SE,128,16.0,17.0,80,0.00,,,0.00,Wunderground v.1.15,2013-07-17 19:25:00,
2013-07-17 15:30:00,83.7,76.5,30.17,ESE,120,15.0,15.0,79,0.00,,,0.00,Wunderground v.1.15,2013-07-17 19:30:00,
2013-07-17 15:35:00,83.8,76.6,30.17,ESE,122,14.0,16.0,79,0.00,,,0.00,Wunderground v.1.15,2013-07-17 19:35:00,
2013-07-17 15:40:00,83.8,77.0,30.17,SSE,151,14.0,14.0,80,0.00,,,0.00,Wunderground v.1.15,2013-07-17 19:40:00,
2013-07-17 15:50:00,83.7,76.9,30.17,ESE,112,14.0,14.0,80,0.00,,,0.00,Wunderground v.1.15,2013-07-17 19:50:00,
2013-07-17 15:55:00,84.0,76.8,30.17,SE,144,14.0,14.0,79,0.00,,,0.00,Wunderground v.1.15,2013-07-17 19:55:00,
2013-07-17 16:05:00,84.1,76.1,30.16,SE,126,13.0,13.0,77,0.00,,,0.00,Wunderground v.1.15,2013-07-17 20:05:00,
2013-07-17 16:10:00,84.5,76.5,30.16,SE,130,12.0,12.0,77,0.00,,,0.00,Wunderground v.1.15,2013-07-17 20:10:00,
2013-07-17 16:20:00,84.4,75.6,30.16,SE,136,11.0,13.0,75,0.00,,,0.00,Wunderground v.1.15,2013-07-17 20:20:00,
2013-07-17 16:25:00,84.3,75.5,30.16,SE,136,11.0,13.0,75,0.00,,,0.00,Wunderground v.1.15,2013-07-17 20:25:00,
2013-07-17 16:35:00,84.8,76.0,30.15,SE,138,9.0,14.0,75,0.00,,,0.00,Wunderground v.1.15,2013-07-17 20:35:00,
2013-07-17 16:40:00,84.8,76.4,30.15,SSE,161,10.0,10.0,76,0.00,,,0.00,Wunderground v.1.15,2013-07-17 20:40:00,
2013-07-17 16:45:00,85.1,76.7,30.15,SSE,149,10.0,13.0,76,0.00,,,0.00,Wunderground v.1.15,2013-07-17 20:45:00,
2013-07-17 16:50:00,84.9,76.1,30.15,SSE,167,11.0,11.0,75,0.00,,,0.00,Wunderground v.1.15,2013-07-17 20:50:00,
2013-07-17 17:00:00,85.2,75.6,30.14,SSE,156,10.0,12.0,73,0.00,,,0.00,Wunderground v.1.15,2013-07-17 21:00:00,
2013-07-17 17:05:00,85.0,75.4,30.14,SSE,153,11.0,12.0,73,0.00,,,0.00,Wunderground v.1.15,2013-07-17 21:05:00,
2013-07-17 17:15:00,85.2,76.0,30.14,SSE,155,11.0,12.0,74,0.00,,,0.00,Wunderground v.1.15,2013-07-17 21:15:00,
2013-07-17 17:20:00,85.2,75.6,30.14,SSE,160,10.0,10.0,73,0.00,,,0.00,Wunderground v.1.15,2013-07-17 21:20:00,
2013-07-17 17:25:00,85.1,75.9,30.14,SSE,157,10.0,12.0,74,0.00,,,0.00,Wunderground v.1.15,2013-07-17 21:25:00,
2013-07-17 17:35:00,84.9,75.3,30.13,South,170,11.0,11.0,73,0.00,,,0.00,Wunderground v.1.15,2013-07-17 21:35:00,
2013-07-17 17:40:00,84.4,75.2,30.13,South,171,9.0,9.0,74,0.00,,,0.00,Wunderground v.1.15,2013-07-17 21:40:00,
2013-07-17 17:50:00,84.0,74.8,30.13,SSE,158,8.0,12.0,74,0.00,,,0.00,Wunderground v.1.15,2013-07-17 21:50:00,
2013-07-17 17:55:00,84.0,74.8,30.13,SSE,155,9.0,12.0,74,0.00,,,0.00,Wunderground v.1.15,2013-07-17 21:55:00,
2013-07-17 18:00:00,83.9,74.3,30.12,SSE,147,9.0,9.0,73,0.00,,,0.00,Wunderground v.1.15,2013-07-17 22:00:00,
2013-07-17 18:15:00,84.8,74.3,30.12,SSE,161,8.0,9.0,71,0.00,,,0.00,Wunderground v.1.15,2013-07-17 22:15:00,
2013-07-17 18:25:00,85.3,74.8,30.12,South,190,8.0,10.0,71,0.00,,,0.00,Wunderground v.1.15,2013-07-17 22:25:00,
2013-07-17 18:30:00,85.5,75.0,30.12,SSW,192,8.0,8.0,71,0.00,,,0.00,Wunderground v.1.15,2013-07-17 22:30:00,
2013-07-17 18:35:00,85.4,74.9,30.12,SSE,148,7.0,8.0,71,0.00,,,0.00,Wunderground v.1.15,2013-07-17 22:35:00,
2013-07-17 18:40:00,85.3,74.8,30.11,South,181,7.0,8.0,71,0.00,,,0.00,Wunderground v.1.15,2013-07-17 22:40:00,
2013-07-17 18:50:00,85.2,75.1,30.11,SSW,196,8.0,10.0,72,0.00,,,0.00,Wunderground v.1.15,2013-07-17 22:50:00,
2013-07-17 18:55:00,85.0,75.4,30.11,South,180,8.0,10.0,73,0.00,,,0.00,Wunderground v.1.15,2013-07-17 22:55:00,
2013-07-17 19:05:00,84.6,74.6,30.11,South,188,7.0,9.0,72,0.00,,,0.00,Wunderground v.1.15,2013-07-17 23:05:00,
2013-07-17 19:15:00,84.3,74.7,30.10,SSE,165,7.0,8.0,73,0.00,,,0.00,Wunderground v.1.15,2013-07-17 23:15:00,
2013-07-17 19:25:00,84.1,74.5,30.10,South,191,6.0,8.0,73,0.00,,,0.00,Wunderground v.1.15,2013-07-17 23:25:00,
2013-07-17 19:35:00,83.8,73.4,30.10,South,175,6.0,11.0,71,0.00,,,0.00,Wunderground v.1.15,2013-07-17 23:35:00,
2013-07-17 19:40:00,83.8,73.4,30.10,South,172,7.0,7.0,71,0.00,,,0.00,Wunderground v.1.15,2013-07-17 23:40:00,
2013-07-17 19:50:00,83.7,74.1,30.10,SSE,165,6.0,8.0,73,0.00,,,0.00,Wunderground v.1.15,2013-07-17 23:50:00,
2013-07-17 19:55:00,83.6,74.0,30.10,South,178,6.0,8.0,73,0.00,,,0.00,Wunderground v.1.15,2013-07-17 23:55:00,
2013-07-17 20:05:00,83.4,75.0,30.11,SSW,198,6.0,7.0,76,0.00,,,0.00,Wunderground v.1.15,2013-07-18 00:05:00,
2013-07-17 20:10:00,83.2,74.4,30.11,South,171,6.0,6.0,75,0.00,,,0.00,Wunderground v.1.15,2013-07-18 00:10:00,
2013-07-17 20:15:00,83.0,74.6,30.11,South,183,6.0,6.0,76,0.00,,,0.00,Wunderground v.1.15,2013-07-18 00:15:00,
2013-07-17 20:25:00,82.7,74.4,30.11,South,188,6.0,8.0,76,0.00,,,0.00,Wunderground v.1.15,2013-07-18 00:25:00,
2013-07-17 20:30:00,82.6,74.3,30.11,SSW,198,6.0,7.0,76,0.00,,,0.00,Wunderground v.1.15,2013-07-18 00:30:00,
2013-07-17 20:35:00,82.5,74.2,30.11,South,185,7.0,7.0,76,0.00,,,0.00,Wunderground v.1.15,2013-07-18 00:35:00,
2013-07-17 20:45:00,82.3,74.4,30.11,SSE,165,6.0,7.0,77,0.00,,,0.00,Wunderground v.1.15,2013-07-18 00:45:00,
2013-07-17 20:50:00,82.1,74.2,30.11,South,180,5.0,5.0,77,0.00,,,0.00,Wunderground v.1.15,2013-07-18 00:50:00,
2013-07-17 21:00:00,82.0,74.5,30.12,South,183,5.0,6.0,78,0.00,,,0.00,Wunderground v.1.15,2013-07-18 01:00:00,
2013-07-17 21:05:00,81.9,74.4,30.12,SSW,192,6.0,6.0,78,0.00,,,0.00,Wunderground v.1.15,2013-07-18 01:05:00,
2013-07-17 21:15:00,81.8,74.3,30.12,South,174,6.0,6.0,78,0.00,,,0.00,Wunderground v.1.15,2013-07-18 01:15:00,
2013-07-17 21:20:00,81.8,74.6,30.12,South,184,5.0,5.0,79,0.00,,,0.00,Wunderground v.1.15,2013-07-18 01:20:00,
2013-07-17 21:25:00,81.8,74.6,30.12,South,185,5.0,6.0,79,0.00,,,0.00,Wunderground v.1.15,2013-07-18 01:25:00,
2013-07-17 21:35:00,81.9,74.7,30.12,SSW,196,4.0,5.0,79,0.00,,,0.00,Wunderground v.1.15,2013-07-18 01:35:00,
2013-07-17 21:40:00,81.8,74.3,30.12,South,190,4.0,4.0,78,0.00,,,0.00,Wunderground v.1.15,2013-07-18 01:40:00,
2013-07-17 21:50:00,81.8,73.9,30.13,South,190,3.0,3.0,77,0.00,,,0.00,Wunderground v.1.15,2013-07-18 01:50:00,
2013-07-17 21:55:00,81.8,74.3,30.13,South,190,2.0,3.0,78,0.00,,,0.00,Wunderground v.1.15,2013-07-18 01:55:00,
2013-07-17 22:00:00,81.8,74.3,30.13,South,190,0.0,0.0,78,0.00,,,0.00,Wunderground v.1.15,2013-07-18 02:00:00,
2013-07-17 22:10:00,81.6,74.1,30.13,South,190,0.0,0.0,78,0.00,,,0.00,Wunderground v.1.15,2013-07-18 02:10:00,
2013-07-17 22:15:00,81.6,74.1,30.13,South,190,0.0,0.0,78,0.00,,,0.00,Wunderground v.1.15,2013-07-18 02:15:00,
2013-07-17 22:20:00,81.6,74.5,30.14,South,190,0.0,0.0,79,0.00,,,0.00,Wunderground v.1.15,2013-07-18 02:20:00,
2013-07-17 22:30:00,81.6,74.1,30.14,South,190,0.0,0.0,78,0.00,,,0.00,Wunderground v.1.15,2013-07-18 02:30:00,
2013-07-17 22:35:00,81.6,74.1,30.14,South,190,0.0,0.0,78,0.00,,,0.00,Wunderground v.1.15,2013-07-18 02:35:00,
2013-07-17 22:40:00,81.6,74.5,30.14,South,190,0.0,0.0,79,0.00,,,0.00,Wunderground v.1.15,2013-07-18 02:40:00,
2013-07-17 22:50:00,81.4,74.3,30.14,South,190,0.0,0.0,79,0.00,,,0.00,Wunderground v.1.15,2013-07-18 02:50:00,
2013-07-17 22:55:00,81.4,74.6,30.14,SSW,200,0.0,0.0,80,0.00,,,0.00,Wunderground v.1.15,2013-07-18 02:55:00,
2013-07-17 23:05:00,81.2,74.4,30.14,SSW,209,0.0,0.0,80,0.00,,,0.00,Wunderground v.1.15,2013-07-18 03:05:00,
2013-07-17 23:10:00,81.2,74.4,30.14,SSW,209,0.0,0.0,80,0.00,,,0.00,Wunderground v.1.15,2013-07-18 03:10:00,
2013-07-17 23:20:00,81.0,74.2,30.14,SSW,209,0.0,0.0,80,0.00,,,0.00,Wunderground v.1.15,2013-07-18 03:20:00,
2013-07-17 23:25:00,80.9,74.1,30.14,West,279,0.0,0.0,80,0.00,,,0.00,Wunderground v.1.15,2013-07-18 03:25:00,
2013-07-17 23:35:00,81.0,74.6,30.14,WNW,284,1.0,4.0,81,0.00,,,0.00,Wunderground v.1.15,2013-07-18 03:35:00,
2013-07-17 23:40:00,81.1,74.7,30.14,WNW,299,1.0,1.0,81,0.00,,,0.00,Wunderground v.1.15,2013-07-18 03:40:00,
2013-07-17 23:45:00,81.1,74.7,30.14,WNW,300,0.0,1.0,81,0.00,,,0.00,Wunderground v.1.15,2013-07-18 03:45:00,
2013-07-17 23:55:00,81.3,74.9,30.14,WNW,291,0.0,0.0,81,0.00,,,0.00,Wunderground v.1.15,2013-07-18 03:55:00,